Time;durP1;ratioP1;P1;durP2;ratioP2;P2;SDS_P1;SDS_P2;PMS_P1;PMS_P2;Temp;Humidity;BMP_temperature;BMP_pressure;BME280_temperature;BME280_humidity;BME280_pressure;Samples;Min_cycle;Max_cycle;Signal;HPM_P1;HPM_P2
2022/01/08 00:01:58;;;;;;;13.00;8.67;;;2.10;99.90;;;;;;5050096;28;20499;-72
2022/01/08 00:04:25;;;;;;;12.77;8.20;;;2.10;99.90;;;;;;5037544;28;20500;-72
2022/01/08 00:06:53;;;;;;;9.87;7.40;;;2.10;99.90;;;;;;5034140;28;20460;-71
2022/01/08 00:09:20;;;;;;;8.43;6.23;;;2.00;99.90;;;;;;5038667;28;20964;-71
2022/01/08 00:11:46;;;;;;;7.20;6.00;;;2.00;99.90;;;;;;5034321;28;20468;-73
2022/01/08 00:14:14;;;;;;;7.33;6.30;;;2.00;99.90;;;;;;5050218;28;20456;-71
2022/01/08 00:16:41;;;;;;;7.73;5.13;;;1.90;99.90;;;;;;5047135;28;20544;-72
2022/01/08 00:19:08;;;;;;;4.20;3.90;;;1.90;99.90;;;;;;5031605;28;20453;-71
2022/01/08 00:21:35;;;;;;;4.40;3.43;;;1.90;99.90;;;;;;5044930;28;20483;-71
2022/01/08 00:24:03;;;;;;;5.27;3.83;;;1.80;99.90;;;;;;5049634;28;20531;-72
2022/01/08 00:26:30;;;;;;;6.70;3.77;;;1.70;99.90;;;;;;5048653;28;20459;-72
2022/01/08 00:28:56;;;;;;;3.73;3.40;;;1.60;99.90;;;;;;5050151;28;20448;-72
2022/01/08 00:31:23;;;;;;;3.67;3.37;;;1.60;99.90;;;;;;5048403;28;20877;-71
2022/01/08 00:33:51;;;;;;;8.43;3.80;;;1.50;99.90;;;;;;5048307;28;20452;-71
2022/01/08 00:36:18;;;;;;;3.30;2.90;;;1.50;99.90;;;;;;5043912;28;20464;-71
2022/01/08 00:38:45;;;;;;;6.67;3.17;;;1.40;99.90;;;;;;5037566;28;20525;-71
2022/01/08 00:41:13;;;;;;;3.40;3.10;;;1.40;99.90;;;;;;5048723;28;21010;-71
2022/01/08 00:43:40;;;;;;;5.20;3.27;;;1.40;99.90;;;;;;5045966;28;21032;-71
2022/01/08 00:46:06;;;;;;;7.00;3.20;;;1.30;99.90;;;;;;5029354;28;20446;-72
2022/01/08 00:48:33;;;;;;;6.30;2.60;;;1.30;99.90;;;;;;5042358;28;20455;-71
2022/01/08 00:51:00;;;;;;;2.93;2.73;;;1.30;99.90;;;;;;5049506;28;20452;-72
2022/01/08 00:53:27;;;;;;;2.90;2.70;;;1.40;99.90;;;;;;5034391;28;20527;-72
2022/01/08 00:55:53;;;;;;;4.70;2.77;;;1.40;99.90;;;;;;5030040;28;20449;-72
2022/01/08 00:58:21;;;;;;;8.97;3.40;;;1.30;99.90;;;;;;5043760;28;20482;-72
2022/01/08 01:00:48;;;;;;;4.37;3.00;;;1.30;99.90;;;;;;5049410;28;20448;-72
2022/01/08 01:03:15;;;;;;;2.70;2.50;;;1.30;99.90;;;;;;5048193;28;20484;-72
2022/01/08 01:05:41;;;;;;;5.47;2.67;;;1.20;99.90;;;;;;5048972;28;20453;-72
2022/01/08 01:08:08;;;;;;;7.13;2.70;;;1.20;99.90;;;;;;5045170;28;20515;-72
2022/01/08 01:10:35;;;;;;;4.83;2.87;;;1.20;99.90;;;;;;5032596;28;20453;-72
2022/01/08 01:13:02;;;;;;;3.07;2.80;;;1.10;99.90;;;;;;5028824;28;20543;-72
2022/01/08 01:15:30;;;;;;;3.50;2.70;;;1.00;99.90;;;;;;5048532;28;20497;-71
2022/01/08 01:17:56;;;;;;;2.80;2.60;;;0.90;99.90;;;;;;5047026;28;20488;-71
2022/01/08 01:20:23;;;;;;;2.87;2.67;;;0.90;99.90;;;;;;5034411;28;20452;-71
2022/01/08 01:22:57;;;;;;;3.33;3.00;;;0.90;99.90;;;;;;5049276;28;20557;-71
2022/01/08 01:25:29;;;;;;;4.00;3.00;;;1.00;99.90;;;;;;5052076;28;20539;-74
2022/01/08 01:28:03;;;;;;;3.80;2.87;;;0.90;99.90;;;;;;5051118;28;20491;-72
2022/01/08 01:30:58;;;;;;;3.00;2.80;;;1.00;99.90;;;;;;5032631;28;20957;-72
2022/01/08 01:41:53;;;;;;;5.70;3.40;;;1.10;99.90;;;;;;5040971;28;20994;-72
2022/01/08 01:47:06;;;;;;;3.70;3.40;;;0.90;99.90;;;;;;5032110;28;20591;-71
2022/01/08 01:49:35;;;;;;;3.40;2.77;;;0.80;99.90;;;;;;5036113;28;20461;-71
2022/01/08 01:52:03;;;;;;;4.30;3.60;;;0.80;99.90;;;;;;5037869;28;20473;-72
2022/01/08 01:54:30;;;;;;;4.50;3.80;;;0.80;99.90;;;;;;5032558;28;20519;-71
2022/01/08 01:56:58;;;;;;;3.67;3.37;;;0.80;99.90;;;;;;5036828;28;20456;-71
2022/01/08 01:59:26;;;;;;;3.83;3.53;;;0.80;99.90;;;;;;5052165;28;21000;-71
2022/01/08 02:01:52;;;;;;;3.33;3.13;;;0.80;99.90;;;;;;5042909;28;20527;-71
2022/01/08 02:04:20;;;;;;;3.10;2.90;;;0.80;99.90;;;;;;5033282;28;20511;-72
2022/01/08 02:06:47;;;;;;;2.87;2.60;;;0.70;99.90;;;;;;5032739;28;20566;-72
2022/01/08 02:09:14;;;;;;;2.80;2.60;;;0.80;99.90;;;;;;5033173;28;20531;-71
2022/01/08 02:11:58;;;;;;;2.70;2.50;;;0.70;99.90;;;;;;5051078;28;20522;-72
2022/01/08 02:14:26;;;;;;;3.00;2.80;;;0.70;99.90;;;;;;5051260;28;20467;-72
2022/01/08 02:16:53;;;;;;;2.60;2.40;;;0.70;99.90;;;;;;5049972;28;20448;-71
2022/01/08 02:19:21;;;;;;;3.00;2.80;;;0.70;99.90;;;;;;5032965;28;20530;-71
2022/01/08 02:21:52;;;;;;;2.90;2.60;;;0.70;99.90;;;;;;5048518;28;20509;-71
2022/01/08 02:24:18;;;;;;;2.80;2.60;;;0.70;99.90;;;;;;5031848;28;21016;-71
2022/01/08 02:26:45;;;;;;;3.93;3.43;;;0.70;99.90;;;;;;5035567;28;20793;-71
2022/01/08 02:29:12;;;;;;;3.47;3.17;;;0.60;99.90;;;;;;5048545;28;20464;-71
2022/01/08 02:31:43;;;;;;;5.03;4.07;;;0.60;99.90;;;;;;5043062;28;20480;-69
2022/01/08 02:34:10;;;;;;;3.43;3.03;;;0.60;99.90;;;;;;5007423;28;20975;-73
2022/01/08 02:36:38;;;;;;;4.67;2.83;;;0.60;99.90;;;;;;5011467;28;20485;-73
2022/01/08 02:39:07;;;;;;;11.90;4.30;;;0.50;99.90;;;;;;5011849;28;20473;-74
2022/01/08 02:41:33;;;;;;;5.10;3.33;;;0.60;99.90;;;;;;5011121;28;20953;-73
2022/01/08 02:44:00;;;;;;;4.53;3.57;;;0.50;99.90;;;;;;5011392;28;20514;-73
2022/01/08 02:46:28;;;;;;;5.30;3.93;;;0.50;99.90;;;;;;5011458;28;20450;-74
2022/01/08 02:48:54;;;;;;;7.20;4.87;;;0.50;99.90;;;;;;5010888;28;20461;-73
2022/01/08 02:51:21;;;;;;;6.20;4.47;;;0.50;99.90;;;;;;5011272;28;20450;-73
2022/01/08 02:53:48;;;;;;;8.20;5.13;;;0.50;99.90;;;;;;5011435;28;20474;-73
2022/01/08 02:56:16;;;;;;;7.40;5.00;;;0.50;99.90;;;;;;5011729;28;20466;-74
2022/01/08 02:58:42;;;;;;;6.70;4.87;;;0.50;99.90;;;;;;5011638;28;20855;-73
2022/01/08 03:01:09;;;;;;;8.07;4.93;;;0.50;99.90;;;;;;5011177;28;20454;-74
2022/01/08 03:03:36;;;;;;;6.37;4.30;;;0.60;99.90;;;;;;5011066;28;20482;-74
2022/01/08 03:06:02;;;;;;;6.93;4.40;;;0.60;99.90;;;;;;5011244;28;20458;-74
2022/01/08 03:08:29;;;;;;;7.07;4.17;;;0.60;99.90;;;;;;5011194;28;20516;-73
2022/01/08 03:10:55;;;;;;;4.63;3.37;;;0.70;99.90;;;;;;5011421;28;20521;-74
2022/01/08 03:13:23;;;;;;;5.10;3.47;;;0.80;99.90;;;;;;5010847;28;20473;-74
2022/01/08 03:15:50;;;;;;;4.70;2.80;;;0.80;99.90;;;;;;5010808;28;20455;-74
2022/01/08 03:18:17;;;;;;;2.97;2.77;;;0.80;99.90;;;;;;5010660;28;20462;-74
2022/01/08 03:20:49;;;;;;;2.67;1.97;;;0.80;99.90;;;;;;5011082;28;20462;-74
2022/01/08 03:23:17;;;;;;;1.90;1.80;;;0.80;99.90;;;;;;5011073;28;20576;-74
2022/01/08 03:25:45;;;;;;;2.57;2.30;;;0.80;99.90;;;;;;5011437;28;20508;-74
2022/01/08 03:28:12;;;;;;;2.33;2.13;;;0.90;99.90;;;;;;5011070;28;20571;-74
2022/01/08 03:30:41;;;;;;;2.30;1.80;;;0.90;99.90;;;;;;5010829;28;20450;-74
2022/01/08 03:33:07;;;;;;;2.30;2.10;;;0.90;99.90;;;;;;5021398;28;20473;-74
2022/01/08 03:35:34;;;;;;;2.37;2.17;;;0.90;99.90;;;;;;5030300;28;20487;-74
2022/01/08 03:38:01;;;;;;;1.93;1.73;;;0.90;99.90;;;;;;5030937;28;20456;-74
2022/01/08 03:40:28;;;;;;;2.10;1.43;;;0.90;99.90;;;;;;5030506;28;20604;-74
2022/01/08 03:42:54;;;;;;;2.07;1.57;;;0.90;99.90;;;;;;5030090;28;20499;-75
2022/01/08 03:45:21;;;;;;;1.50;1.40;;;0.80;99.90;;;;;;5029860;28;20461;-74
2022/01/08 03:48:18;;;;;;;1.97;1.80;;;0.90;99.90;;;;;;5029827;28;20483;-74
2022/01/08 03:50:44;;;;;;;1.97;1.87;;;0.90;99.90;;;;;;5030259;28;20468;-75
2022/01/08 03:53:11;;;;;;;1.90;1.80;;;0.80;99.90;;;;;;5030520;28;20973;-75
2022/01/08 03:55:38;;;;;;;1.70;1.60;;;0.90;99.90;;;;;;5029783;28;20461;-75
2022/01/08 03:58:05;;;;;;;1.60;1.50;;;0.90;99.90;;;;;;5029682;28;20842;-75
2022/01/08 04:00:32;;;;;;;1.43;1.33;;;0.80;99.90;;;;;;5028879;28;20991;-75
2022/01/08 04:03:00;;;;;;;1.77;1.67;;;0.80;99.90;;;;;;5029791;28;20482;-75
2022/01/08 04:05:27;;;;;;;1.60;1.50;;;0.90;99.90;;;;;;5029893;28;20925;-74
2022/01/08 04:07:53;;;;;;;1.50;1.40;;;0.90;99.90;;;;;;5029771;28;20870;-75
2022/01/08 04:10:20;;;;;;;1.63;1.53;;;0.90;99.90;;;;;;5029201;28;20449;-75
2022/01/08 04:12:50;;;;;;;1.90;1.80;;;0.90;99.90;;;;;;5030002;28;20568;-75
2022/01/08 04:15:34;;;;;;;1.93;1.83;;;0.90;99.90;;;;;;5029903;28;20543;-75
2022/01/08 04:18:02;;;;;;;2.33;2.00;;;1.00;99.90;;;;;;5029975;28;20464;-75
2022/01/08 04:20:28;;;;;;;2.13;1.93;;;1.00;99.90;;;;;;5029537;28;20465;-75
2022/01/08 04:22:55;;;;;;;2.53;2.33;;;1.00;99.90;;;;;;5029372;28;20481;-74
2022/01/08 04:25:23;;;;;;;2.93;2.60;;;1.00;99.90;;;;;;5030148;28;20731;-74
2022/01/08 04:27:51;;;;;;;2.60;2.40;;;1.00;99.90;;;;;;5029698;28;20453;-74
2022/01/08 04:30:18;;;;;;;2.87;2.50;;;0.90;99.90;;;;;;5029530;28;21028;-75
2022/01/08 04:32:45;;;;;;;3.10;2.70;;;0.90;99.90;;;;;;5029334;28;20531;-75
2022/01/08 04:35:13;;;;;;;2.30;2.20;;;0.90;99.90;;;;;;5029694;28;20504;-75
2022/01/08 04:37:40;;;;;;;3.20;2.50;;;0.80;99.90;;;;;;5029620;28;20457;-74
2022/01/08 04:40:08;;;;;;;2.80;2.60;;;0.70;99.90;;;;;;5029588;28;21031;-74
2022/01/08 04:42:34;;;;;;;2.80;2.60;;;0.80;99.90;;;;;;5029264;28;20473;-75
2022/01/08 04:45:01;;;;;;;3.23;2.90;;;0.70;99.90;;;;;;5029298;28;20496;-75
2022/01/08 04:47:28;;;;;;;2.80;2.50;;;0.70;99.90;;;;;;5029214;28;20453;-74
2022/01/08 04:49:54;;;;;;;4.50;2.43;;;0.70;99.90;;;;;;5029501;28;20511;-75
2022/01/08 04:52:22;;;;;;;3.63;2.60;;;0.60;99.90;;;;;;5029291;28;20477;-74
2022/01/08 04:54:49;;;;;;;7.40;2.77;;;0.60;99.90;;;;;;5029316;28;20952;-75
2022/01/08 04:57:16;;;;;;;7.07;3.17;;;0.50;99.90;;;;;;5029674;28;20495;-75
2022/01/08 04:59:42;;;;;;;3.67;2.53;;;0.50;99.90;;;;;;5033117;28;20454;-75
2022/01/08 05:02:09;;;;;;;6.83;3.83;;;0.50;99.90;;;;;;5033459;28;20552;-75
2022/01/08 05:04:36;;;;;;;3.20;2.80;;;0.50;99.90;;;;;;5032891;28;20488;-75
2022/01/08 05:07:03;;;;;;;4.27;2.50;;;0.50;99.90;;;;;;5033275;28;20527;-75
2022/01/08 05:09:31;;;;;;;4.67;2.53;;;0.50;99.90;;;;;;5032624;28;20500;-75
2022/01/08 05:11:58;;;;;;;2.30;2.03;;;0.50;99.90;;;;;;5033176;28;20453;-75
2022/01/08 05:14:26;;;;;;;2.67;2.27;;;0.50;99.90;;;;;;5032840;28;20592;-75
2022/01/08 05:16:58;;;;;;;2.10;2.00;;;0.50;99.90;;;;;;5033125;28;20465;-75
2022/01/08 05:19:36;;;;;;;2.30;2.07;;;0.50;99.90;;;;;;5033308;28;20457;-75
2022/01/08 05:22:05;;;;;;;4.17;2.20;;;0.60;99.90;;;;;;5033165;28;20477;-75
2022/01/08 05:24:34;;;;;;;2.30;2.03;;;0.60;99.90;;;;;;5032950;28;20508;-74
2022/01/08 05:27:02;;;;;;;5.20;2.07;;;0.70;99.90;;;;;;5032866;28;20457;-76
2022/01/08 05:29:29;;;;;;;2.13;1.93;;;0.70;99.90;;;;;;5033150;28;20539;-75
2022/01/08 05:31:56;;;;;;;3.00;1.80;;;0.70;99.90;;;;;;5032013;28;20487;-75
2022/01/08 05:34:22;;;;;;;1.93;1.80;;;0.70;99.90;;;;;;5032865;28;20445;-75
2022/01/08 05:36:49;;;;;;;2.00;1.80;;;0.70;99.90;;;;;;5032646;28;20507;-78
2022/01/08 05:39:15;;;;;;;1.50;1.40;;;0.70;99.90;;;;;;5032691;28;20445;-77
2022/01/08 05:41:43;;;;;;;1.70;1.60;;;0.80;99.90;;;;;;5032189;28;20466;-77
2022/01/08 05:44:10;;;;;;;1.30;1.20;;;0.70;99.90;;;;;;5032781;28;20489;-77
2022/01/08 05:46:39;;;;;;;6.93;1.50;;;0.70;99.90;;;;;;5032072;28;20449;-77
2022/01/08 05:49:05;;;;;;;1.60;1.50;;;0.70;99.90;;;;;;5032459;28;20461;-77
2022/01/08 05:51:32;;;;;;;2.43;1.40;;;0.70;99.90;;;;;;5031982;28;20974;-77
2022/01/08 05:53:59;;;;;;;2.80;1.50;;;0.70;99.90;;;;;;5031163;28;20465;-77
2022/01/08 05:56:25;;;;;;;1.60;1.50;;;0.70;99.90;;;;;;5031617;28;20737;-77
2022/01/08 05:58:53;;;;;;;3.23;1.60;;;0.70;99.90;;;;;;5032337;28;20527;-77
2022/01/08 06:01:20;;;;;;;2.00;1.80;;;0.60;99.90;;;;;;5031125;28;20457;-77
2022/01/08 06:03:47;;;;;;;2.53;2.33;;;0.90;99.90;;;;;;5031337;28;20968;-77
2022/01/08 06:06:14;;;;;;;2.90;2.30;;;0.50;99.90;;;;;;5032048;28;20503;-76
2022/01/08 06:08:40;;;;;;;2.90;2.40;;;0.70;99.90;;;;;;5031660;28;20453;-75
2022/01/08 06:11:07;;;;;;;4.30;2.70;;;0.70;99.90;;;;;;5031605;28;20964;-75
2022/01/08 06:13:34;;;;;;;4.37;2.60;;;0.60;99.90;;;;;;5032097;28;20461;-77
2022/01/08 06:16:02;;;;;;;2.90;2.70;;;0.70;99.90;;;;;;5031328;28;20511;-77
2022/01/08 06:18:30;;;;;;;7.80;3.40;;;0.70;99.90;;;;;;5031904;28;20507;-76
2022/01/08 06:20:59;;;;;;;7.57;3.00;;;0.80;99.90;;;;;;5031319;28;20957;-75
2022/01/08 06:23:26;;;;;;;4.80;3.67;;;0.80;99.90;;;;;;5031622;28;20573;-76
2022/01/08 06:25:53;;;;;;;4.93;3.23;;;0.70;99.90;;;;;;5031425;28;20507;-76
2022/01/08 06:28:19;;;;;;;5.37;3.33;;;0.70;99.90;;;;;;5031234;28;20949;-77
2022/01/08 06:30:47;;;;;;;4.63;3.70;;;0.70;99.90;;;;;;5031337;28;20511;-77
2022/01/08 06:33:15;;;;;;;5.57;3.50;;;0.60;99.90;;;;;;5031549;28;20515;-77
2022/01/08 06:35:42;;;;;;;4.90;3.90;;;0.60;99.90;;;;;;5031228;28;20452;-77
2022/01/08 06:38:09;;;;;;;6.00;3.53;;;0.50;99.90;;;;;;5032365;28;21031;-77
2022/01/08 06:40:35;;;;;;;9.73;4.00;;;0.50;99.90;;;;;;5030656;28;20816;-77
2022/01/08 06:43:02;;;;;;;4.37;3.63;;;0.50;99.90;;;;;;5030549;28;21018;-77
2022/01/08 06:45:29;;;;;;;5.40;4.00;;;0.50;99.90;;;;;;5030381;28;20484;-75
2022/01/08 06:47:56;;;;;;;8.10;3.83;;;0.50;99.90;;;;;;5031618;28;20453;-75
2022/01/08 06:50:27;;;;;;;4.33;3.67;;;0.50;99.90;;;;;;5031298;28;20950;-77
2022/01/08 06:52:53;;;;;;;8.43;4.23;;;0.70;99.90;;;;;;5031386;28;20577;-77
2022/01/08 06:55:20;;;;;;;7.90;5.03;;;0.60;99.90;;;;;;5030939;28;21213;-77
2022/01/08 06:57:47;;;;;;;5.10;4.40;;;0.60;99.90;;;;;;5031256;28;20454;-77
2022/01/08 07:00:14;;;;;;;6.00;4.53;;;0.60;99.90;;;;;;5031005;28;20458;-77
2022/01/08 07:02:41;;;;;;;7.37;4.70;;;0.60;99.90;;;;;;5030909;28;20530;-77
2022/01/08 07:05:08;;;;;;;9.83;5.30;;;0.60;99.90;;;;;;5031401;28;20488;-76
2022/01/08 07:07:36;;;;;;;6.17;4.67;;;0.70;99.90;;;;;;5031299;28;20479;-78
2022/01/08 07:10:03;;;;;;;7.10;5.07;;;0.70;99.90;;;;;;5030756;28;20826;-77
2022/01/08 07:12:30;;;;;;;11.57;4.70;;;0.70;99.90;;;;;;5030252;28;20892;-76
2022/01/08 07:14:57;;;;;;;9.23;4.77;;;0.70;99.90;;;;;;5030374;28;20492;-76
2022/01/08 07:17:24;;;;;;;8.90;4.50;;;0.80;99.90;;;;;;5030188;28;20824;-77
2022/01/08 07:19:50;;;;;;;5.63;5.00;;;0.90;99.90;;;;;;5030445;28;20449;-78
2022/01/08 07:22:17;;;;;;;10.40;5.30;;;0.80;99.90;;;;;;5031215;28;20477;-76
2022/01/08 07:24:45;;;;;;;6.97;5.77;;;0.80;99.90;;;;;;5029686;28;20909;-77
2022/01/08 07:27:12;;;;;;;9.67;4.90;;;0.80;99.90;;;;;;5029612;28;20507;-77
2022/01/08 07:29:39;;;;;;;5.97;5.07;;;0.80;99.90;;;;;;5031157;28;20536;-79
2022/01/08 07:32:07;;;;;;;8.90;5.00;;;0.80;99.90;;;;;;5030171;28;20527;-77
2022/01/08 07:34:34;;;;;;;10.80;5.87;;;0.80;99.90;;;;;;5030929;28;20449;-78
2022/01/08 07:37:00;;;;;;;11.67;5.43;;;1.00;99.90;;;;;;5030328;28;20523;-78
2022/01/08 07:39:27;;;;;;;10.37;5.57;;;1.00;99.90;;;;;;5031276;28;20465;-77
2022/01/08 07:41:55;;;;;;;9.97;5.10;;;1.00;99.90;;;;;;5030759;28;20918;-78
2022/01/08 07:44:22;;;;;;;10.60;5.40;;;0.90;99.90;;;;;;5030927;28;21154;-78
2022/01/08 07:46:48;;;;;;;11.10;6.90;;;1.00;99.90;;;;;;5030577;28;20869;-78
2022/01/08 07:49:15;;;;;;;9.97;6.10;;;1.00;99.90;;;;;;5030655;28;20453;-78
2022/01/08 07:51:42;;;;;;;11.47;6.00;;;1.00;99.90;;;;;;5029257;28;20461;-78
2022/01/08 07:54:08;;;;;;;14.93;7.93;;;1.00;99.90;;;;;;5030384;28;20960;-78
2022/01/08 07:56:36;;;;;;;12.33;7.80;;;1.00;99.90;;;;;;5030292;28;20484;-78
2022/01/08 07:59:04;;;;;;;8.37;6.47;;;1.00;99.90;;;;;;5030675;28;20468;-78
2022/01/08 08:01:32;;;;;;;8.97;6.07;;;1.10;99.90;;;;;;5030726;28;20445;-78
2022/01/08 08:03:58;;;;;;;10.00;5.90;;;1.10;99.90;;;;;;5029745;28;20481;-78
2022/01/08 08:06:25;;;;;;;6.20;5.37;;;1.10;99.90;;;;;;5030443;28;20989;-70
2022/01/08 08:08:52;;;;;;;9.27;5.53;;;1.20;99.90;;;;;;5030267;28;20446;-70
2022/01/08 08:11:18;;;;;;;7.77;6.30;;;1.30;99.90;;;;;;5029852;28;20458;-73
2022/01/08 08:13:45;;;;;;;15.77;6.80;;;1.60;99.90;;;;;;5029163;28;20476;-71
2022/01/08 08:16:13;;;;;;;17.80;7.27;;;1.70;99.90;;;;;;5029235;28;20449;-71
2022/01/08 08:18:40;;;;;;;14.93;8.90;;;1.80;99.90;;;;;;5029523;28;20944;-77
2022/01/08 08:21:07;;;;;;;16.50;9.10;;;1.90;99.90;;;;;;5029126;28;20442;-77
2022/01/08 08:23:33;;;;;;;13.80;8.40;;;2.00;99.90;;;;;;5029999;28;20461;-77
2022/01/08 08:26:00;;;;;;;14.77;8.60;;;1.90;99.90;;;;;;5029354;28;20542;-77
2022/01/08 08:28:30;;;;;;;18.10;8.93;;;1.90;99.90;;;;;;5029503;28;20925;-77
2022/01/08 08:30:57;;;;;;;13.33;8.40;;;1.90;99.90;;;;;;5029655;28;20449;-77
2022/01/08 08:33:25;;;;;;;19.13;8.53;;;1.80;99.90;;;;;;5028608;28;20511;-77
2022/01/08 08:35:51;;;;;;;14.20;9.87;;;1.80;99.90;;;;;;5029624;28;21008;-77
2022/01/08 08:38:18;;;;;;;15.80;9.90;;;1.80;99.90;;;;;;5029486;28;20499;-77
2022/01/08 08:40:45;;;;;;;12.70;8.47;;;1.80;99.90;;;;;;5030043;28;20453;-77
2022/01/08 08:43:11;;;;;;;17.33;10.17;;;1.80;99.90;;;;;;5029002;28;21016;-77
2022/01/08 08:45:40;;;;;;;22.30;9.00;;;2.10;99.90;;;;;;5033544;28;20553;-77
2022/01/08 08:48:06;;;;;;;18.87;9.80;;;2.20;99.90;;;;;;5028560;28;21361;-77
2022/01/08 08:50:34;;;;;;;17.17;9.07;;;2.30;99.90;;;;;;5029795;28;20797;-77
2022/01/08 08:53:01;;;;;;;18.47;8.93;;;2.30;99.90;;;;;;5019773;28;21048;-77
2022/01/08 08:55:28;;;;;;;23.17;9.90;;;2.20;99.90;;;;;;5030069;28;20476;-77
2022/01/08 08:57:54;;;;;;;23.47;10.93;;;2.20;99.90;;;;;;5028444;28;20511;-77
2022/01/08 09:00:21;;;;;;;16.00;9.40;;;2.20;99.90;;;;;;5029683;28;20511;-77
2022/01/08 09:02:48;;;;;;;24.53;9.83;;;2.20;99.90;;;;;;5028923;28;21053;-77
2022/01/08 09:05:15;;;;;;;16.80;9.67;;;2.20;99.90;;;;;;5029702;28;20511;-77
2022/01/08 09:07:43;;;;;;;23.40;11.23;;;2.30;99.90;;;;;;5028632;28;20461;-77
2022/01/08 09:10:10;;;;;;;20.60;11.00;;;2.20;99.90;;;;;;5021621;28;20881;-77
2022/01/08 09:12:38;;;;;;;32.37;11.83;;;2.20;99.90;;;;;;5029703;28;20477;-77
2022/01/08 09:15:06;;;;;;;20.70;11.57;;;2.20;99.90;;;;;;5029448;28;20460;-78
2022/01/08 09:17:34;;;;;;;18.87;10.93;;;2.30;99.90;;;;;;5029179;28;20461;-78
2022/01/08 09:20:01;;;;;;;22.83;10.60;;;2.40;99.90;;;;;;5029093;28;20450;-78
2022/01/08 09:22:28;;;;;;;23.80;10.93;;;2.60;99.90;;;;;;5030083;28;20559;-78
2022/01/08 09:24:57;;;;;;;27.37;12.20;;;2.80;99.90;;;;;;5029190;28;20477;-78
2022/01/08 09:27:24;;;;;;;24.37;12.37;;;2.90;99.90;;;;;;5028891;28;20464;-77
2022/01/08 09:29:50;;;;;;;24.60;12.20;;;2.90;99.90;;;;;;5029124;28;20610;-77
2022/01/08 09:32:18;;;;;;;24.83;12.00;;;2.80;99.90;;;;;;5029384;28;20481;-77
2022/01/08 09:34:45;;;;;;;19.17;10.80;;;2.60;99.90;;;;;;5028786;28;20453;-77
2022/01/08 09:37:12;;;;;;;20.37;11.23;;;2.60;99.90;;;;;;5028633;28;20461;-77
2022/01/08 09:39:40;;;;;;;20.57;10.27;;;2.60;99.90;;;;;;5028952;28;20461;-77
2022/01/08 09:42:09;;;;;;;20.03;11.63;;;2.50;99.90;;;;;;5029147;28;20873;-78
2022/01/08 09:44:37;;;;;;;23.73;12.07;;;2.50;99.90;;;;;;5031252;28;20457;-78
2022/01/08 09:47:04;;;;;;;19.23;10.57;;;2.60;99.90;;;;;;5032386;28;20469;-77
2022/01/08 09:49:31;;;;;;;18.93;10.50;;;2.60;99.90;;;;;;5031859;28;20448;-78
2022/01/08 09:51:58;;;;;;;25.27;11.70;;;2.50;99.90;;;;;;5032637;28;20453;-78
2022/01/08 09:54:27;;;;;;;21.13;12.10;;;2.40;99.90;;;;;;5033286;28;20445;-78
2022/01/08 09:56:53;;;;;;;23.97;11.40;;;2.30;99.90;;;;;;5030440;28;20457;-78
2022/01/08 09:59:22;;;;;;;25.47;11.80;;;2.10;99.90;;;;;;5032861;28;20449;-78
2022/01/08 10:01:53;;;;;;;21.63;11.73;;;1.90;99.90;;;;;;5032361;28;20449;-78
2022/01/08 10:04:24;;;;;;;26.40;13.03;;;2.10;99.90;;;;;;5031848;28;20449;-78
2022/01/08 10:06:51;;;;;;;30.70;12.10;;;2.10;99.90;;;;;;5031485;28;20481;-78
2022/01/08 10:09:17;;;;;;;29.77;13.50;;;2.10;99.90;;;;;;5032125;28;20511;-78
2022/01/08 10:11:50;;;;;;;33.40;12.43;;;2.30;99.90;;;;;;5031938;28;20453;-79
2022/01/08 10:14:28;;;;;;;26.30;11.70;;;2.10;99.90;;;;;;5025934;28;20873;-79
2022/01/08 10:17:14;;;;;;;21.00;11.37;;;2.20;99.90;;;;;;5032177;28;20448;-79
2022/01/08 10:19:41;;;;;;;17.40;10.50;;;2.10;99.90;;;;;;5031409;28;20457;-79
2022/01/08 10:22:16;;;;;;;22.63;11.87;;;2.10;99.90;;;;;;5035908;28;20477;-78
2022/01/08 10:24:42;;;;;;;17.93;9.40;;;2.30;99.90;;;;;;5035531;28;20459;-80
2022/01/08 10:27:09;;;;;;;24.53;11.40;;;2.40;99.90;;;;;;5034556;28;20453;-79
2022/01/08 10:29:36;;;;;;;26.50;11.73;;;2.40;99.90;;;;;;5037461;28;20962;-79
2022/01/08 10:32:07;;;;;;;21.10;12.23;;;2.90;99.90;;;;;;5037744;28;20489;-79
2022/01/08 10:34:34;;;;;;;19.30;8.90;;;3.30;99.90;;;;;;5037018;28;20461;-78
2022/01/08 10:37:03;;;;;;;14.77;8.80;;;3.70;99.90;;;;;;5035765;28;20937;-78
2022/01/08 10:39:33;;;;;;;19.53;9.10;;;3.60;99.90;;;;;;5034684;28;20453;-78
2022/01/08 10:42:01;;;;;;;21.60;9.00;;;3.50;99.90;;;;;;5033381;28;20501;-78
2022/01/08 10:44:29;;;;;;;13.40;8.07;;;3.50;99.90;;;;;;5033779;28;20445;-78
2022/01/08 10:46:58;;;;;;;12.83;7.60;;;3.60;99.90;;;;;;5032814;28;20489;-79
2022/01/08 10:49:34;;;;;;;19.53;8.40;;;3.70;99.90;;;;;;5034497;28;20453;-78
2022/01/08 10:52:03;;;;;;;16.30;7.60;;;3.60;99.90;;;;;;5033188;28;20445;-79
2022/01/08 10:54:31;;;;;;;9.17;6.37;;;3.70;99.90;;;;;;5033853;28;20542;-80
2022/01/08 10:57:01;;;;;;;17.27;7.37;;;3.50;99.90;;;;;;5027779;28;20584;-79
2022/01/08 10:59:30;;;;;;;10.33;6.27;;;3.50;99.90;;;;;;5043877;28;20442;-78
2022/01/08 11:01:58;;;;;;;19.47;7.70;;;3.60;99.90;;;;;;5039261;28;20453;-79
2022/01/08 11:04:39;;;;;;;12.17;6.60;;;3.70;99.90;;;;;;5047057;28;20488;-79
2022/01/08 11:07:08;;;;;;;15.53;6.00;;;3.90;99.90;;;;;;5031820;28;20527;-79
2022/01/08 11:09:36;;;;;;;8.27;5.37;;;3.80;99.90;;;;;;5036322;28;20460;-79
2022/01/08 11:12:06;;;;;;;22.90;6.37;;;3.80;99.90;;;;;;5035967;28;20547;-80
2022/01/08 11:17:24;;;;;;;7.77;5.10;;;3.60;99.90;;;;;;5031440;28;20441;-80
2022/01/08 11:19:54;;;;;;;12.40;4.80;;;3.60;99.90;;;;;;5032480;28;20531;-81
2022/01/08 11:22:23;;;;;;;8.63;4.93;;;3.60;99.90;;;;;;5032091;28;20609;-81
2022/01/08 11:24:54;;;;;;;7.40;4.83;;;3.60;99.90;;;;;;5030844;28;20450;-79
2022/01/08 11:27:23;;;;;;;12.10;4.87;;;3.60;99.90;;;;;;5030379;28;20567;-78
2022/01/08 11:29:58;;;;;;;10.20;4.30;;;3.40;99.90;;;;;;5030538;28;20899;-79
2022/01/08 11:32:28;;;;;;;6.33;4.10;;;3.30;99.90;;;;;;5030605;28;20571;-79
2022/01/08 11:34:57;;;;;;;10.13;4.50;;;3.20;99.90;;;;;;5031842;28;20458;-79
2022/01/08 11:37:25;;;;;;;15.97;4.77;;;3.10;99.90;;;;;;5029758;28;20449;-79
2022/01/08 11:39:53;;;;;;;9.57;4.90;;;3.30;99.90;;;;;;5029108;28;20457;-79
2022/01/08 11:42:21;;;;;;;11.73;5.10;;;3.40;99.90;;;;;;5029541;28;20688;-79
2022/01/08 11:44:50;;;;;;;6.60;4.70;;;3.50;99.90;;;;;;5029040;28;20957;-80
2022/01/08 11:47:18;;;;;;;6.37;4.40;;;3.50;99.90;;;;;;5013806;28;20492;-80
2022/01/08 11:49:45;;;;;;;7.13;4.53;;;3.50;99.90;;;;;;5029339;28;20457;-79
2022/01/08 11:52:18;;;;;;;10.00;4.90;;;3.60;99.90;;;;;;5030596;28;20519;-80
2022/01/08 11:54:46;;;;;;;8.47;4.40;;;3.60;99.90;;;;;;5030532;28;20449;-79
2022/01/08 11:57:18;;;;;;;17.23;4.23;;;3.60;99.90;;;;;;5030860;28;20457;-81
2022/01/08 11:59:45;;;;;;;10.27;4.10;;;3.70;99.90;;;;;;5030516;28;20816;-79
2022/01/08 12:02:14;;;;;;;11.13;4.57;;;4.00;99.90;;;;;;5030406;28;20988;-79
2022/01/08 12:04:42;;;;;;;8.97;4.20;;;4.40;99.90;;;;;;5029985;28;20950;-80
2022/01/08 12:07:31;;;;;;;9.20;4.77;;;4.50;99.90;;;;;;5030000;28;20628;-80
2022/01/08 12:10:13;;;;;;;7.10;4.20;;;4.40;99.90;;;;;;5029572;28;21126;-80
2022/01/08 12:12:49;;;;;;;7.47;4.40;;;4.10;99.90;;;;;;5030295;28;20477;-79
2022/01/08 12:15:16;;;;;;;6.83;4.10;;;3.80;99.90;;;;;;5028916;28;20826;-78
2022/01/08 12:17:57;;;;;;;6.40;4.20;;;3.80;99.90;;;;;;5029617;28;20511;-79
2022/01/08 12:20:41;;;;;;;11.57;4.60;;;3.80;99.90;;;;;;5028998;28;20487;-78
2022/01/08 12:23:30;;;;;;;10.27;5.70;;;3.90;99.90;;;;;;5029276;28;20530;-79
2022/01/08 12:25:58;;;;;;;8.23;4.77;;;3.90;99.90;;;;;;5029166;28;20834;-78
2022/01/08 12:28:53;;;;;;;10.73;4.37;;;3.90;99.90;;;;;;5028800;28;20446;-79
2022/01/08 12:31:28;;;;;;;7.63;3.90;;;3.90;99.90;;;;;;5029187;28;20469;-77
2022/01/08 12:34:20;;;;;;;11.73;4.57;;;3.80;99.90;;;;;;5028637;28;20480;-77
2022/01/08 12:36:54;;;;;;;4.90;3.90;;;4.20;99.90;;;;;;5028350;28;20983;-77
2022/01/08 12:39:26;;;;;;;12.80;3.67;;;4.80;99.90;;;;;;5020741;28;20453;-78
2022/01/08 12:42:26;;;;;;;10.40;5.67;;;5.20;99.90;;;;;;5028090;28;21075;-78
2022/01/08 12:44:57;;;;;;;5.10;3.07;;;5.00;99.90;;;;;;5028385;28;20960;-77
2022/01/08 12:47:38;;;;;;;8.37;4.10;;;4.50;99.90;;;;;;5028612;28;20853;-77
2022/01/08 12:50:31;;;;;;;5.93;4.13;;;4.10;99.90;;;;;;5028652;28;20457;-77
2022/01/08 12:53:19;;;;;;;6.50;4.40;;;3.90;99.90;;;;;;5027802;28;20485;-76
2022/01/08 12:56:15;;;;;;;13.57;5.10;;;3.50;99.90;;;;;;5027459;28;20450;-76
2022/01/08 12:58:53;;;;;;;9.10;4.90;;;3.20;99.90;;;;;;5028530;28;20452;-77
2022/01/08 13:01:25;;;;;;;7.73;4.50;;;3.10;99.90;;;;;;5028813;28;20464;-77
2022/01/08 13:03:54;;;;;;;10.30;4.50;;;3.10;99.90;;;;;;5027665;28;20469;-79
2022/01/08 13:06:27;;;;;;;8.57;4.37;;;3.10;99.90;;;;;;5028300;28;20485;-80
2022/01/08 13:08:55;;;;;;;8.33;4.50;;;3.10;99.90;;;;;;5029108;28;20449;-79
2022/01/08 13:11:26;;;;;;;16.23;4.30;;;3.20;99.90;;;;;;5030627;28;20464;-81
2022/01/08 13:13:56;;;;;;;10.40;4.40;;;3.30;99.90;;;;;;5030280;28;20469;-79
2022/01/08 13:16:26;;;;;;;7.47;4.53;;;3.40;99.90;;;;;;5015072;28;20876;-79